sensor_id;sensor_type;location;lat;lon;timestamp;P1;durP1;ratioP1;P2;durP2;ratioP2
51852;SDS011;37894;53.172;6.598;2023-04-01T00:00:16;15.75;;;8.70;;
51852;SDS011;37894;53.172;6.598;2023-04-01T00:02:42;16.33;;;8.65;;
51852;SDS011;37894;53.172;6.598;2023-04-01T00:05:08;15.52;;;8.90;;
51852;SDS011;37894;53.172;6.598;2023-04-01T00:07:35;14.40;;;9.35;;
51852;SDS011;37894;53.172;6.598;2023-04-01T00:10:02;16.77;;;8.45;;
51852;SDS011;37894;53.172;6.598;2023-04-01T00:12:29;15.07;;;9.18;;
51852;SDS011;37894;53.172;6.598;2023-04-01T00:14:54;15.98;;;9.20;;
51852;SDS011;37894;53.172;6.598;2023-04-01T00:17:20;13.95;;;9.07;;
51852;SDS011;37894;53.172;6.598;2023-04-01T00:19:46;15.70;;;8.77;;
51852;SDS011;37894;53.172;6.598;2023-04-01T00:22:13;13.43;;;8.25;;
51852;SDS011;37894;53.172;6.598;2023-04-01T00:24:39;13.30;;;8.63;;
51852;SDS011;37894;53.172;6.598;2023-04-01T00:27:04;15.93;;;9.52;;
51852;SDS011;37894;53.172;6.598;2023-04-01T00:29:30;16.75;;;10.07;;
51852;SDS011;37894;53.172;6.598;2023-04-01T00:31:57;17.08;;;9.60;;
51852;SDS011;37894;53.172;6.598;2023-04-01T00:34:23;16.38;;;9.23;;
51852;SDS011;37894;53.172;6.598;2023-04-01T00:36:49;18.10;;;9.13;;
51852;SDS011;37894;53.172;6.598;2023-04-01T00:39:17;16.25;;;10.20;;
51852;SDS011;37894;53.172;6.598;2023-04-01T00:41:43;15.88;;;8.88;;
51852;SDS011;37894;53.172;6.598;2023-04-01T00:44:22;16.88;;;10.00;;
51852;SDS011;37894;53.172;6.598;2023-04-01T00:46:49;17.67;;;9.98;;
51852;SDS011;37894;53.172;6.598;2023-04-01T00:49:17;16.05;;;9.43;;
51852;SDS011;37894;53.172;6.598;2023-04-01T00:51:47;16.98;;;9.73;;
51852;SDS011;37894;53.172;6.598;2023-04-01T00:54:15;16.23;;;9.52;;
51852;SDS011;37894;53.172;6.598;2023-04-01T00:56:52;16.35;;;9.57;;
51852;SDS011;37894;53.172;6.598;2023-04-01T00:59:24;14.80;;;9.73;;
51852;SDS011;37894;53.172;6.598;2023-04-01T01:01:52;17.88;;;10.15;;
51852;SDS011;37894;53.172;6.598;2023-04-01T01:04:28;15.77;;;9.35;;
51852;SDS011;37894;53.172;6.598;2023-04-01T01:06:57;17.05;;;10.25;;
51852;SDS011;37894;53.172;6.598;2023-04-01T01:36:50;15.63;;;9.82;;
51852;SDS011;37894;53.172;6.598;2023-04-01T01:39:23;20.50;;;11.10;;
51852;SDS011;37894;53.172;6.598;2023-04-01T01:41:55;22.02;;;11.57;;
51852;SDS011;37894;53.172;6.598;2023-04-01T01:44:24;18.30;;;10.23;;
51852;SDS011;37894;53.172;6.598;2023-04-01T01:46:51;18.45;;;10.65;;
51852;SDS011;37894;53.172;6.598;2023-04-01T01:49:17;16.13;;;9.93;;
51852;SDS011;37894;53.172;6.598;2023-04-01T01:51:45;23.55;;;11.40;;
51852;SDS011;37894;53.172;6.598;2023-04-01T01:54:11;18.25;;;10.75;;
51852;SDS011;37894;53.172;6.598;2023-04-01T01:56:38;17.35;;;10.80;;
51852;SDS011;37894;53.172;6.598;2023-04-01T01:59:07;20.90;;;10.90;;
51852;SDS011;37894;53.172;6.598;2023-04-01T02:01:37;21.55;;;10.98;;
51852;SDS011;37894;53.172;6.598;2023-04-01T02:04:06;16.50;;;10.13;;
51852;SDS011;37894;53.172;6.598;2023-04-01T02:06:36;17.10;;;10.00;;
51852;SDS011;37894;53.172;6.598;2023-04-01T02:09:07;15.35;;;10.00;;
51852;SDS011;37894;53.172;6.598;2023-04-01T02:14:22;19.00;;;10.35;;
51852;SDS011;37894;53.172;6.598;2023-04-01T02:16:54;19.23;;;10.20;;
51852;SDS011;37894;53.172;6.598;2023-04-01T02:19:26;16.20;;;9.63;;
51852;SDS011;37894;53.172;6.598;2023-04-01T02:21:57;17.15;;;10.13;;
51852;SDS011;37894;53.172;6.598;2023-04-01T02:24:26;17.85;;;10.43;;
51852;SDS011;37894;53.172;6.598;2023-04-01T02:26:55;16.10;;;9.52;;
51852;SDS011;37894;53.172;6.598;2023-04-01T02:29:21;16.40;;;9.45;;
51852;SDS011;37894;53.172;6.598;2023-04-01T02:31:50;16.95;;;9.70;;
51852;SDS011;37894;53.172;6.598;2023-04-01T02:34:18;17.75;;;10.65;;
51852;SDS011;37894;53.172;6.598;2023-04-01T02:36:45;18.08;;;10.43;;
51852;SDS011;37894;53.172;6.598;2023-04-01T02:39:12;18.70;;;10.00;;
51852;SDS011;37894;53.172;6.598;2023-04-01T02:41:42;18.80;;;10.38;;
51852;SDS011;37894;53.172;6.598;2023-04-01T02:44:09;18.88;;;9.98;;
51852;SDS011;37894;53.172;6.598;2023-04-01T02:46:36;19.63;;;10.13;;
51852;SDS011;37894;53.172;6.598;2023-04-01T02:49:02;19.25;;;10.00;;
51852;SDS011;37894;53.172;6.598;2023-04-01T02:51:28;19.90;;;10.90;;
51852;SDS011;37894;53.172;6.598;2023-04-01T02:53:54;18.90;;;10.43;;
51852;SDS011;37894;53.172;6.598;2023-04-01T02:56:20;15.43;;;10.10;;
51852;SDS011;37894;53.172;6.598;2023-04-01T02:58:46;19.27;;;10.73;;
51852;SDS011;37894;53.172;6.598;2023-04-01T03:01:12;23.98;;;11.98;;
51852;SDS011;37894;53.172;6.598;2023-04-01T03:03:38;19.33;;;10.77;;
51852;SDS011;37894;53.172;6.598;2023-04-01T03:06:05;20.92;;;11.45;;
51852;SDS011;37894;53.172;6.598;2023-04-01T03:08:32;21.10;;;10.35;;
51852;SDS011;37894;53.172;6.598;2023-04-01T03:10:57;17.20;;;10.75;;
51852;SDS011;37894;53.172;6.598;2023-04-01T03:13:23;21.10;;;11.52;;
51852;SDS011;37894;53.172;6.598;2023-04-01T03:15:49;18.67;;;10.50;;
51852;SDS011;37894;53.172;6.598;2023-04-01T03:18:14;17.65;;;10.38;;
51852;SDS011;37894;53.172;6.598;2023-04-01T03:20:40;17.95;;;9.98;;
51852;SDS011;37894;53.172;6.598;2023-04-01T03:23:07;18.13;;;10.90;;
51852;SDS011;37894;53.172;6.598;2023-04-01T03:25:32;19.27;;;11.00;;
51852;SDS011;37894;53.172;6.598;2023-04-01T03:27:58;17.73;;;10.93;;
51852;SDS011;37894;53.172;6.598;2023-04-01T03:30:25;20.60;;;11.07;;
51852;SDS011;37894;53.172;6.598;2023-04-01T03:32:51;23.23;;;11.63;;
51852;SDS011;37894;53.172;6.598;2023-04-01T03:35:17;22.33;;;11.93;;
51852;SDS011;37894;53.172;6.598;2023-04-01T03:37:43;26.33;;;13.10;;
51852;SDS011;37894;53.172;6.598;2023-04-01T03:40:09;24.10;;;13.48;;
51852;SDS011;37894;53.172;6.598;2023-04-01T03:42:35;24.50;;;13.55;;
51852;SDS011;37894;53.172;6.598;2023-04-01T03:45:02;22.05;;;13.70;;
51852;SDS011;37894;53.172;6.598;2023-04-01T03:47:28;21.77;;;11.60;;
51852;SDS011;37894;53.172;6.598;2023-04-01T03:49:54;21.77;;;12.98;;
51852;SDS011;37894;53.172;6.598;2023-04-01T03:52:19;24.23;;;13.55;;
51852;SDS011;37894;53.172;6.598;2023-04-01T03:54:45;22.55;;;13.05;;
51852;SDS011;37894;53.172;6.598;2023-04-01T03:57:11;22.80;;;12.75;;
51852;SDS011;37894;53.172;6.598;2023-04-01T03:59:37;28.83;;;14.13;;
51852;SDS011;37894;53.172;6.598;2023-04-01T04:02:02;26.75;;;14.25;;
51852;SDS011;37894;53.172;6.598;2023-04-01T04:04:28;23.50;;;13.45;;
51852;SDS011;37894;53.172;6.598;2023-04-01T04:06:55;25.73;;;13.35;;
51852;SDS011;37894;53.172;6.598;2023-04-01T04:09:21;25.73;;;13.38;;
51852;SDS011;37894;53.172;6.598;2023-04-01T04:11:48;23.85;;;13.65;;
51852;SDS011;37894;53.172;6.598;2023-04-01T04:14:14;23.08;;;13.70;;
51852;SDS011;37894;53.172;6.598;2023-04-01T04:16:40;23.42;;;13.20;;
51852;SDS011;37894;53.172;6.598;2023-04-01T04:19:05;28.00;;;14.82;;
51852;SDS011;37894;53.172;6.598;2023-04-01T04:21:31;28.30;;;13.88;;
51852;SDS011;37894;53.172;6.598;2023-04-01T04:23:58;25.08;;;13.93;;
51852;SDS011;37894;53.172;6.598;2023-04-01T04:26:25;25.67;;;13.98;;
51852;SDS011;37894;53.172;6.598;2023-04-01T04:28:51;27.65;;;15.02;;
51852;SDS011;37894;53.172;6.598;2023-04-01T04:31:20;27.02;;;15.07;;
51852;SDS011;37894;53.172;6.598;2023-04-01T04:33:47;26.13;;;14.82;;
51852;SDS011;37894;53.172;6.598;2023-04-01T04:36:13;23.17;;;14.00;;
51852;SDS011;37894;53.172;6.598;2023-04-01T04:38:39;27.73;;;14.80;;
51852;SDS011;37894;53.172;6.598;2023-04-01T04:41:11;26.52;;;14.57;;
51852;SDS011;37894;53.172;6.598;2023-04-01T04:43:39;26.17;;;14.65;;
51852;SDS011;37894;53.172;6.598;2023-04-01T04:46:09;24.73;;;13.50;;
51852;SDS011;37894;53.172;6.598;2023-04-01T04:48:35;27.10;;;15.35;;
51852;SDS011;37894;53.172;6.598;2023-04-01T04:51:01;23.02;;;13.85;;
51852;SDS011;37894;53.172;6.598;2023-04-01T04:53:28;26.45;;;14.40;;
51852;SDS011;37894;53.172;6.598;2023-04-01T04:55:54;25.95;;;14.70;;
51852;SDS011;37894;53.172;6.598;2023-04-01T04:58:20;26.20;;;14.38;;
51852;SDS011;37894;53.172;6.598;2023-04-01T05:00:46;26.50;;;15.75;;
51852;SDS011;37894;53.172;6.598;2023-04-01T05:03:12;23.27;;;14.10;;
51852;SDS011;37894;53.172;6.598;2023-04-01T05:05:38;25.90;;;14.98;;
51852;SDS011;37894;53.172;6.598;2023-04-01T05:08:05;27.25;;;14.00;;
51852;SDS011;37894;53.172;6.598;2023-04-01T05:10:30;27.80;;;14.55;;
51852;SDS011;37894;53.172;6.598;2023-04-01T05:12:57;28.17;;;14.65;;
51852;SDS011;37894;53.172;6.598;2023-04-01T05:15:23;29.15;;;14.60;;
51852;SDS011;37894;53.172;6.598;2023-04-01T05:17:49;24.48;;;13.90;;
51852;SDS011;37894;53.172;6.598;2023-04-01T05:20:15;23.95;;;14.27;;
51852;SDS011;37894;53.172;6.598;2023-04-01T05:22:41;30.63;;;15.52;;
51852;SDS011;37894;53.172;6.598;2023-04-01T05:25:07;26.05;;;13.90;;
51852;SDS011;37894;53.172;6.598;2023-04-01T05:27:33;25.42;;;13.25;;
51852;SDS011;37894;53.172;6.598;2023-04-01T05:29:59;25.60;;;13.35;;
51852;SDS011;37894;53.172;6.598;2023-04-01T05:32:24;30.35;;;13.95;;
51852;SDS011;37894;53.172;6.598;2023-04-01T05:34:50;25.42;;;14.05;;
51852;SDS011;37894;53.172;6.598;2023-04-01T05:37:16;25.17;;;13.82;;
51852;SDS011;37894;53.172;6.598;2023-04-01T05:39:42;25.25;;;13.73;;
51852;SDS011;37894;53.172;6.598;2023-04-01T05:42:08;23.90;;;13.70;;
51852;SDS011;37894;53.172;6.598;2023-04-01T05:44:34;26.85;;;14.07;;
51852;SDS011;37894;53.172;6.598;2023-04-01T05:47:00;27.27;;;13.10;;
51852;SDS011;37894;53.172;6.598;2023-04-01T05:49:27;24.25;;;12.98;;
51852;SDS011;37894;53.172;6.598;2023-04-01T05:51:53;24.45;;;13.27;;
51852;SDS011;37894;53.172;6.598;2023-04-01T05:54:19;25.58;;;13.18;;
51852;SDS011;37894;53.172;6.598;2023-04-01T05:56:45;24.13;;;12.82;;
51852;SDS011;37894;53.172;6.598;2023-04-01T05:59:11;26.73;;;13.52;;
51852;SDS011;37894;53.172;6.598;2023-04-01T06:01:38;21.70;;;11.80;;
51852;SDS011;37894;53.172;6.598;2023-04-01T06:04:03;26.00;;;13.20;;
51852;SDS011;37894;53.172;6.598;2023-04-01T06:06:30;23.40;;;12.18;;
51852;SDS011;37894;53.172;6.598;2023-04-01T06:08:57;20.15;;;12.00;;
51852;SDS011;37894;53.172;6.598;2023-04-01T06:11:47;22.15;;;11.55;;
51852;SDS011;37894;53.172;6.598;2023-04-01T06:17:04;24.25;;;12.77;;
51852;SDS011;37894;53.172;6.598;2023-04-01T06:20:03;23.40;;;12.88;;
51852;SDS011;37894;53.172;6.598;2023-04-01T06:22:37;23.83;;;12.73;;
51852;SDS011;37894;53.172;6.598;2023-04-01T06:25:32;29.73;;;15.00;;
51852;SDS011;37894;53.172;6.598;2023-04-01T06:31:10;27.05;;;15.48;;
51852;SDS011;37894;53.172;6.598;2023-04-01T06:34:00;30.65;;;15.77;;
51852;SDS011;37894;53.172;6.598;2023-04-01T06:36:47;29.60;;;16.38;;
51852;SDS011;37894;53.172;6.598;2023-04-01T06:42:54;29.95;;;16.25;;
51852;SDS011;37894;53.172;6.598;2023-04-01T06:56:20;27.58;;;16.77;;
51852;SDS011;37894;53.172;6.598;2023-04-01T06:58:59;33.85;;;16.85;;
51852;SDS011;37894;53.172;6.598;2023-04-01T07:01:35;30.90;;;17.20;;
51852;SDS011;37894;53.172;6.598;2023-04-01T07:09:32;34.35;;;18.77;;
51852;SDS011;37894;53.172;6.598;2023-04-01T07:12:16;31.30;;;16.80;;
51852;SDS011;37894;53.172;6.598;2023-04-01T07:15:12;32.92;;;19.00;;
51852;SDS011;37894;53.172;6.598;2023-04-01T07:17:45;32.63;;;18.42;;
51852;SDS011;37894;53.172;6.598;2023-04-01T07:20:25;31.33;;;16.95;;
51852;SDS011;37894;53.172;6.598;2023-04-01T07:22:56;33.20;;;19.30;;
51852;SDS011;37894;53.172;6.598;2023-04-01T07:25:29;34.67;;;18.27;;
51852;SDS011;37894;53.172;6.598;2023-04-01T07:28:00;29.40;;;17.38;;
51852;SDS011;37894;53.172;6.598;2023-04-01T07:36:42;27.80;;;16.75;;
51852;SDS011;37894;53.172;6.598;2023-04-01T07:39:32;34.10;;;18.50;;
51852;SDS011;37894;53.172;6.598;2023-04-01T07:48:08;26.70;;;16.17;;
51852;SDS011;37894;53.172;6.598;2023-04-01T08:06:42;25.90;;;14.88;;
51852;SDS011;37894;53.172;6.598;2023-04-01T08:09:13;23.80;;;14.35;;
51852;SDS011;37894;53.172;6.598;2023-04-01T08:22:58;22.77;;;13.80;;
51852;SDS011;37894;53.172;6.598;2023-04-01T08:25:43;20.83;;;12.90;;
51852;SDS011;37894;53.172;6.598;2023-04-01T08:28:27;20.75;;;12.02;;
51852;SDS011;37894;53.172;6.598;2023-04-01T08:33:59;19.25;;;12.20;;
51852;SDS011;37894;53.172;6.598;2023-04-01T08:36:34;18.65;;;11.85;;
51852;SDS011;37894;53.172;6.598;2023-04-01T08:39:28;19.17;;;11.98;;
51852;SDS011;37894;53.172;6.598;2023-04-01T08:42:00;16.48;;;10.98;;
51852;SDS011;37894;53.172;6.598;2023-04-01T08:45:03;18.50;;;11.55;;
51852;SDS011;37894;53.172;6.598;2023-04-01T08:56:00;18.30;;;11.73;;
51852;SDS011;37894;53.172;6.598;2023-04-01T08:58:33;17.23;;;11.55;;
51852;SDS011;37894;53.172;6.598;2023-04-01T09:12:25;13.90;;;9.30;;
51852;SDS011;37894;53.172;6.598;2023-04-01T09:26:08;8.35;;;5.05;;
51852;SDS011;37894;53.172;6.598;2023-04-01T09:34:21;7.45;;;4.68;;
51852;SDS011;37894;53.172;6.598;2023-04-01T09:37:19;5.70;;;3.72;;
51852;SDS011;37894;53.172;6.598;2023-04-01T10:02:49;7.22;;;3.72;;
51852;SDS011;37894;53.172;6.598;2023-04-01T10:05:25;5.47;;;3.70;;
51852;SDS011;37894;53.172;6.598;2023-04-01T10:40:42;5.38;;;2.78;;
51852;SDS011;37894;53.172;6.598;2023-04-01T10:43:39;4.95;;;2.80;;
51852;SDS011;37894;53.172;6.598;2023-04-01T11:22:34;6.13;;;3.35;;
51852;SDS011;37894;53.172;6.598;2023-04-01T11:44:56;4.88;;;3.58;;
51852;SDS011;37894;53.172;6.598;2023-04-01T11:47:41;5.55;;;4.38;;
51852;SDS011;37894;53.172;6.598;2023-04-01T11:56:38;5.43;;;4.03;;
51852;SDS011;37894;53.172;6.598;2023-04-01T12:13:04;5.00;;;3.97;;
51852;SDS011;37894;53.172;6.598;2023-04-01T12:18:36;4.45;;;2.83;;
51852;SDS011;37894;53.172;6.598;2023-04-01T12:26:56;3.88;;;2.72;;
51852;SDS011;37894;53.172;6.598;2023-04-01T12:35:18;4.32;;;2.95;;
51852;SDS011;37894;53.172;6.598;2023-04-01T12:44:19;4.25;;;2.90;;
51852;SDS011;37894;53.172;6.598;2023-04-01T12:47:30;4.18;;;2.80;;
51852;SDS011;37894;53.172;6.598;2023-04-01T12:52:13;4.80;;;3.17;;
51852;SDS011;37894;53.172;6.598;2023-04-01T12:55:40;4.28;;;2.83;;
51852;SDS011;37894;53.172;6.598;2023-04-01T12:57:44;4.47;;;2.97;;
51852;SDS011;37894;53.172;6.598;2023-04-01T13:03:23;4.88;;;3.63;;
51852;SDS011;37894;53.172;6.598;2023-04-01T13:08:36;5.93;;;3.03;;
51852;SDS011;37894;53.172;6.598;2023-04-01T13:14:21;4.32;;;3.50;;
51852;SDS011;37894;53.172;6.598;2023-04-01T13:16:57;5.97;;;4.60;;
51852;SDS011;37894;53.172;6.598;2023-04-01T13:19:32;6.05;;;4.00;;
51852;SDS011;37894;53.172;6.598;2023-04-01T13:22:21;6.65;;;4.32;;
51852;SDS011;37894;53.172;6.598;2023-04-01T13:24:52;6.47;;;3.90;;
51852;SDS011;37894;53.172;6.598;2023-04-01T13:27:30;7.18;;;4.43;;
51852;SDS011;37894;53.172;6.598;2023-04-01T13:44:16;3.75;;;2.40;;
51852;SDS011;37894;53.172;6.598;2023-04-01T13:47:08;4.32;;;2.50;;
51852;SDS011;37894;53.172;6.598;2023-04-01T14:03:56;3.58;;;2.03;;
51852;SDS011;37894;53.172;6.598;2023-04-01T14:12:40;3.10;;;2.20;;
51852;SDS011;37894;53.172;6.598;2023-04-01T14:15:20;3.33;;;2.13;;
51852;SDS011;37894;53.172;6.598;2023-04-01T14:20:39;4.15;;;2.60;;
51852;SDS011;37894;53.172;6.598;2023-04-01T14:26:55;3.22;;;2.25;;
51852;SDS011;37894;53.172;6.598;2023-04-01T14:31:48;4.68;;;2.40;;
51852;SDS011;37894;53.172;6.598;2023-04-01T14:46:03;3.83;;;2.20;;
51852;SDS011;37894;53.172;6.598;2023-04-01T14:57:09;4.20;;;2.60;;
51852;SDS011;37894;53.172;6.598;2023-04-01T14:59:40;4.22;;;2.60;;
51852;SDS011;37894;53.172;6.598;2023-04-01T15:05:14;4.05;;;2.22;;
51852;SDS011;37894;53.172;6.598;2023-04-01T15:10:42;5.47;;;2.53;;
51852;SDS011;37894;53.172;6.598;2023-04-01T15:27:28;4.45;;;2.60;;
51852;SDS011;37894;53.172;6.598;2023-04-01T15:30:14;4.97;;;2.90;;
51852;SDS011;37894;53.172;6.598;2023-04-01T15:43:52;6.03;;;3.20;;
51852;SDS011;37894;53.172;6.598;2023-04-01T15:54:37;6.82;;;3.15;;
51852;SDS011;37894;53.172;6.598;2023-04-01T16:00:25;6.57;;;4.07;;
51852;SDS011;37894;53.172;6.598;2023-04-01T16:20:02;6.63;;;3.50;;
51852;SDS011;37894;53.172;6.598;2023-04-01T16:23:02;6.60;;;4.00;;
51852;SDS011;37894;53.172;6.598;2023-04-01T16:25:45;8.50;;;3.83;;
51852;SDS011;37894;53.172;6.598;2023-04-01T16:36:11;13.95;;;5.10;;
51852;SDS011;37894;53.172;6.598;2023-04-01T16:41:33;8.90;;;4.95;;
51852;SDS011;37894;53.172;6.598;2023-04-01T16:44:20;8.85;;;3.97;;
51852;SDS011;37894;53.172;6.598;2023-04-01T16:49:50;7.28;;;4.10;;
51852;SDS011;37894;53.172;6.598;2023-04-01T16:55:49;7.65;;;5.10;;
51852;SDS011;37894;53.172;6.598;2023-04-01T17:01:47;10.32;;;5.50;;
51852;SDS011;37894;53.172;6.598;2023-04-01T17:07:23;7.15;;;4.75;;
51852;SDS011;37894;53.172;6.598;2023-04-01T17:18:41;7.40;;;5.00;;
51852;SDS011;37894;53.172;6.598;2023-04-01T17:24:34;8.38;;;4.80;;
51852;SDS011;37894;53.172;6.598;2023-04-01T17:51:32;10.23;;;5.60;;
51852;SDS011;37894;53.172;6.598;2023-04-01T17:54:10;6.75;;;4.18;;
51852;SDS011;37894;53.172;6.598;2023-04-01T17:57:06;9.25;;;5.05;;
51852;SDS011;37894;53.172;6.598;2023-04-01T18:02:51;8.77;;;5.30;;
51852;SDS011;37894;53.172;6.598;2023-04-01T18:10:40;10.98;;;4.78;;
51852;SDS011;37894;53.172;6.598;2023-04-01T18:23:49;12.00;;;6.40;;
51852;SDS011;37894;53.172;6.598;2023-04-01T18:26:26;10.27;;;5.70;;
51852;SDS011;37894;53.172;6.598;2023-04-01T18:31:37;12.50;;;6.72;;
51852;SDS011;37894;53.172;6.598;2023-04-01T18:36:58;10.18;;;5.68;;
51852;SDS011;37894;53.172;6.598;2023-04-01T18:42:19;11.27;;;6.03;;
51852;SDS011;37894;53.172;6.598;2023-04-01T18:45:09;13.48;;;6.10;;
51852;SDS011;37894;53.172;6.598;2023-04-01T18:51:02;10.05;;;6.05;;
51852;SDS011;37894;53.172;6.598;2023-04-01T18:53:41;10.23;;;5.75;;
51852;SDS011;37894;53.172;6.598;2023-04-01T18:56:13;12.98;;;6.15;;
51852;SDS011;37894;53.172;6.598;2023-04-01T18:58:48;10.77;;;6.05;;
51852;SDS011;37894;53.172;6.598;2023-04-01T19:04:18;16.20;;;6.10;;
51852;SDS011;37894;53.172;6.598;2023-04-01T19:06:54;13.50;;;6.57;;
51852;SDS011;37894;53.172;6.598;2023-04-01T19:09:43;12.35;;;6.53;;
51852;SDS011;37894;53.172;6.598;2023-04-01T19:21:05;11.60;;;6.32;;
51852;SDS011;37894;53.172;6.598;2023-04-01T19:29:45;14.27;;;7.13;;
51852;SDS011;37894;53.172;6.598;2023-04-01T19:38:26;16.35;;;7.28;;
51852;SDS011;37894;53.172;6.598;2023-04-01T19:52:41;13.65;;;7.10;;
51852;SDS011;37894;53.172;6.598;2023-04-01T19:58:25;18.67;;;8.43;;
51852;SDS011;37894;53.172;6.598;2023-04-01T20:01:06;11.48;;;6.20;;
51852;SDS011;37894;53.172;6.598;2023-04-01T20:03:39;9.82;;;5.30;;
51852;SDS011;37894;53.172;6.598;2023-04-01T20:07:09;11.82;;;5.82;;
51852;SDS011;37894;53.172;6.598;2023-04-01T20:12:06;9.50;;;5.38;;
51852;SDS011;37894;53.172;6.598;2023-04-01T20:17:23;10.82;;;5.85;;
51852;SDS011;37894;53.172;6.598;2023-04-01T20:30:38;9.75;;;4.90;;
51852;SDS011;37894;53.172;6.598;2023-04-01T20:44:21;13.05;;;4.85;;
51852;SDS011;37894;53.172;6.598;2023-04-01T20:47:17;8.45;;;4.63;;
51852;SDS011;37894;53.172;6.598;2023-04-01T20:52:41;7.47;;;3.90;;
51852;SDS011;37894;53.172;6.598;2023-04-01T21:00:39;9.98;;;5.03;;
51852;SDS011;37894;53.172;6.598;2023-04-01T21:06:27;8.50;;;4.30;;
51852;SDS011;37894;53.172;6.598;2023-04-01T21:25:47;11.05;;;4.60;;
51852;SDS011;37894;53.172;6.598;2023-04-01T21:28:45;9.90;;;4.90;;
51852;SDS011;37894;53.172;6.598;2023-04-01T21:31:27;14.40;;;5.97;;
51852;SDS011;37894;53.172;6.598;2023-04-01T21:34:41;11.52;;;4.63;;
51852;SDS011;37894;53.172;6.598;2023-04-01T22:07:48;10.95;;;4.03;;
51852;SDS011;37894;53.172;6.598;2023-04-01T22:13:06;7.70;;;3.83;;
51852;SDS011;37894;53.172;6.598;2023-04-01T22:18:46;7.32;;;3.95;;
51852;SDS011;37894;53.172;6.598;2023-04-01T22:21:32;11.38;;;3.90;;
51852;SDS011;37894;53.172;6.598;2023-04-01T22:24:17;8.95;;;3.90;;
51852;SDS011;37894;53.172;6.598;2023-04-01T22:32:25;7.07;;;3.75;;
51852;SDS011;37894;53.172;6.598;2023-04-01T22:37:51;11.63;;;4.38;;
51852;SDS011;37894;53.172;6.598;2023-04-01T22:40:34;7.90;;;3.88;;
51852;SDS011;37894;53.172;6.598;2023-04-01T22:43:10;7.07;;;3.75;;
51852;SDS011;37894;53.172;6.598;2023-04-01T22:48:15;6.45;;;3.70;;
51852;SDS011;37894;53.172;6.598;2023-04-01T22:51:02;9.35;;;4.15;;
51852;SDS011;37894;53.172;6.598;2023-04-01T22:56:31;7.00;;;3.85;;
51852;SDS011;37894;53.172;6.598;2023-04-01T22:59:10;10.95;;;3.97;;
51852;SDS011;37894;53.172;6.598;2023-04-01T23:01:44;8.23;;;3.88;;
51852;SDS011;37894;53.172;6.598;2023-04-01T23:04:16;8.75;;;4.25;;
51852;SDS011;37894;53.172;6.598;2023-04-01T23:06:52;7.25;;;4.10;;
51852;SDS011;37894;53.172;6.598;2023-04-01T23:09:35;9.70;;;4.20;;
51852;SDS011;37894;53.172;6.598;2023-04-01T23:12:10;9.23;;;3.80;;
51852;SDS011;37894;53.172;6.598;2023-04-01T23:14:51;7.05;;;3.65;;
51852;SDS011;37894;53.172;6.598;2023-04-01T23:17:26;9.38;;;3.90;;
51852;SDS011;37894;53.172;6.598;2023-04-01T23:20:15;10.27;;;4.05;;
51852;SDS011;37894;53.172;6.598;2023-04-01T23:26:07;9.95;;;4.10;;
51852;SDS011;37894;53.172;6.598;2023-04-01T23:28:50;7.82;;;4.00;;
51852;SDS011;37894;53.172;6.598;2023-04-01T23:31:31;8.38;;;3.88;;
51852;SDS011;37894;53.172;6.598;2023-04-01T23:34:17;8.20;;;4.20;;
51852;SDS011;37894;53.172;6.598;2023-04-01T23:36:55;7.00;;;3.70;;
51852;SDS011;37894;53.172;6.598;2023-04-01T23:42:11;9.60;;;5.22;;
51852;SDS011;37894;53.172;6.598;2023-04-01T23:44:40;8.27;;;3.67;;
51852;SDS011;37894;53.172;6.598;2023-04-01T23:47:07;6.93;;;3.70;;
51852;SDS011;37894;53.172;6.598;2023-04-01T23:52:13;8.07;;;3.83;;
51852;SDS011;37894;53.172;6.598;2023-04-01T23:55:00;8.05;;;4.07;;
51852;SDS011;37894;53.172;6.598;2023-04-01T23:57:33;9.95;;;3.30;;
